sensor_id;sensor_type;location;lat;lon;timestamp;temperature;humidity
15328;DHT22;7764;51.430;6.840;2022-09-27T00:01:35;11.40;99.90
15328;DHT22;7764;51.430;6.840;2022-09-27T00:04:02;11.30;99.90
15328;DHT22;7764;51.430;6.840;2022-09-27T00:06:30;11.30;99.90
15328;DHT22;7764;51.430;6.840;2022-09-27T00:08:58;11.30;99.90
15328;DHT22;7764;51.430;6.840;2022-09-27T00:11:27;11.30;99.90
15328;DHT22;7764;51.430;6.840;2022-09-27T00:13:54;11.30;99.90
15328;DHT22;7764;51.430;6.840;2022-09-27T00:16:24;11.30;99.90
15328;DHT22;7764;51.430;6.840;2022-09-27T00:18:52;11.40;99.90
15328;DHT22;7764;51.430;6.840;2022-09-27T00:21:19;11.30;99.90
15328;DHT22;7764;51.430;6.840;2022-09-27T00:23:46;11.30;99.90
15328;DHT22;7764;51.430;6.840;2022-09-27T00:26:13;11.30;99.90
15328;DHT22;7764;51.430;6.840;2022-09-27T00:28:40;11.20;99.90
15328;DHT22;7764;51.430;6.840;2022-09-27T00:31:18;11.30;99.90
15328;DHT22;7764;51.430;6.840;2022-09-27T00:33:48;11.20;99.90
15328;DHT22;7764;51.430;6.840;2022-09-27T00:36:16;11.30;99.90
15328;DHT22;7764;51.430;6.840;2022-09-27T00:38:44;11.30;99.90
15328;DHT22;7764;51.430;6.840;2022-09-27T00:41:14;11.20;99.90
15328;DHT22;7764;51.430;6.840;2022-09-27T00:43:46;11.30;99.90
15328;DHT22;7764;51.430;6.840;2022-09-27T00:46:18;11.30;99.90
15328;DHT22;7764;51.430;6.840;2022-09-27T00:48:49;11.30;99.90
15328;DHT22;7764;51.430;6.840;2022-09-27T00:51:20;11.20;99.90
15328;DHT22;7764;51.430;6.840;2022-09-27T00:53:49;11.20;99.90
15328;DHT22;7764;51.430;6.840;2022-09-27T00:56:22;11.30;99.90
15328;DHT22;7764;51.430;6.840;2022-09-27T00:58:55;11.20;99.90
15328;DHT22;7764;51.430;6.840;2022-09-27T01:01:22;11.20;99.90
15328;DHT22;7764;51.430;6.840;2022-09-27T01:03:56;11.20;99.90
15328;DHT22;7764;51.430;6.840;2022-09-27T01:06:25;11.20;99.90
15328;DHT22;7764;51.430;6.840;2022-09-27T01:08:52;11.20;99.90
15328;DHT22;7764;51.430;6.840;2022-09-27T01:11:32;11.20;99.90
15328;DHT22;7764;51.430;6.840;2022-09-27T01:14:17;11.20;99.90
15328;DHT22;7764;51.430;6.840;2022-09-27T01:16:52;11.20;99.90
15328;DHT22;7764;51.430;6.840;2022-09-27T01:19:46;11.20;99.90
15328;DHT22;7764;51.430;6.840;2022-09-27T01:22:22;11.20;99.90
15328;DHT22;7764;51.430;6.840;2022-09-27T01:24:55;11.20;99.90
15328;DHT22;7764;51.430;6.840;2022-09-27T01:27:48;11.20;99.90
15328;DHT22;7764;51.430;6.840;2022-09-27T01:30:23;11.20;99.90
15328;DHT22;7764;51.430;6.840;2022-09-27T01:35:46;11.20;99.90
15328;DHT22;7764;51.430;6.840;2022-09-27T01:38:24;11.20;99.90
15328;DHT22;7764;51.430;6.840;2022-09-27T01:41:01;11.20;99.90
15328;DHT22;7764;51.430;6.840;2022-09-27T01:43:33;11.20;99.90
15328;DHT22;7764;51.430;6.840;2022-09-27T01:46:09;11.20;99.90
15328;DHT22;7764;51.430;6.840;2022-09-27T01:48:40;11.20;99.90
15328;DHT22;7764;51.430;6.840;2022-09-27T01:51:10;11.10;99.90
15328;DHT22;7764;51.430;6.840;2022-09-27T01:53:41;11.10;99.90
15328;DHT22;7764;51.430;6.840;2022-09-27T01:56:12;11.10;99.90
15328;DHT22;7764;51.430;6.840;2022-09-27T01:58:42;11.10;99.90
15328;DHT22;7764;51.430;6.840;2022-09-27T02:01:13;11.10;99.90
15328;DHT22;7764;51.430;6.840;2022-09-27T02:03:46;11.10;99.90
15328;DHT22;7764;51.430;6.840;2022-09-27T02:06:16;11.10;99.90
15328;DHT22;7764;51.430;6.840;2022-09-27T02:08:47;11.10;99.90
15328;DHT22;7764;51.430;6.840;2022-09-27T02:11:17;11.10;99.90
15328;DHT22;7764;51.430;6.840;2022-09-27T02:13:48;11.10;99.90
15328;DHT22;7764;51.430;6.840;2022-09-27T02:16:25;11.00;99.90
15328;DHT22;7764;51.430;6.840;2022-09-27T02:19:00;11.10;99.90
15328;DHT22;7764;51.430;6.840;2022-09-27T02:21:52;11.10;99.90
15328;DHT22;7764;51.430;6.840;2022-09-27T02:24:23;11.10;99.90
15328;DHT22;7764;51.430;6.840;2022-09-27T02:26:59;11.10;99.90
15328;DHT22;7764;51.430;6.840;2022-09-27T02:29:33;11.10;99.90
15328;DHT22;7764;51.430;6.840;2022-09-27T02:32:02;11.10;99.90
15328;DHT22;7764;51.430;6.840;2022-09-27T02:34:30;11.10;99.90
15328;DHT22;7764;51.430;6.840;2022-09-27T02:36:59;11.10;99.90
15328;DHT22;7764;51.430;6.840;2022-09-27T02:39:27;11.10;99.90
15328;DHT22;7764;51.430;6.840;2022-09-27T02:41:54;11.10;99.90
15328;DHT22;7764;51.430;6.840;2022-09-27T02:44:24;11.10;99.90
15328;DHT22;7764;51.430;6.840;2022-09-27T02:47:09;11.10;99.90
15328;DHT22;7764;51.430;6.840;2022-09-27T02:49:47;11.10;99.90
15328;DHT22;7764;51.430;6.840;2022-09-27T02:52:28;11.00;99.90
15328;DHT22;7764;51.430;6.840;2022-09-27T02:55:06;11.10;99.90
15328;DHT22;7764;51.430;6.840;2022-09-27T02:57:44;11.10;99.90
15328;DHT22;7764;51.430;6.840;2022-09-27T03:00:15;11.00;99.90
15328;DHT22;7764;51.430;6.840;2022-09-27T03:02:51;11.00;99.90
15328;DHT22;7764;51.430;6.840;2022-09-27T03:05:21;11.00;99.90
15328;DHT22;7764;51.430;6.840;2022-09-27T03:07:49;11.00;99.90
15328;DHT22;7764;51.430;6.840;2022-09-27T03:10:17;11.00;99.90
15328;DHT22;7764;51.430;6.840;2022-09-27T03:12:45;11.00;99.90
15328;DHT22;7764;51.430;6.840;2022-09-27T03:15:12;11.00;99.90
15328;DHT22;7764;51.430;6.840;2022-09-27T03:17:39;10.90;99.90
15328;DHT22;7764;51.430;6.840;2022-09-27T03:20:08;10.90;99.90
15328;DHT22;7764;51.430;6.840;2022-09-27T03:22:35;10.80;99.90
15328;DHT22;7764;51.430;6.840;2022-09-27T03:25:03;10.80;99.90
15328;DHT22;7764;51.430;6.840;2022-09-27T03:27:30;10.70;99.90
15328;DHT22;7764;51.430;6.840;2022-09-27T03:29:57;10.70;99.90
15328;DHT22;7764;51.430;6.840;2022-09-27T03:32:25;10.70;99.90
15328;DHT22;7764;51.430;6.840;2022-09-27T03:34:52;10.70;99.90
15328;DHT22;7764;51.430;6.840;2022-09-27T03:37:21;10.70;99.90
15328;DHT22;7764;51.430;6.840;2022-09-27T03:39:48;10.70;99.90
15328;DHT22;7764;51.430;6.840;2022-09-27T03:42:15;10.70;99.90
15328;DHT22;7764;51.430;6.840;2022-09-27T03:44:42;10.70;99.90
15328;DHT22;7764;51.430;6.840;2022-09-27T03:47:09;10.70;99.90
15328;DHT22;7764;51.430;6.840;2022-09-27T03:49:36;10.60;99.90
15328;DHT22;7764;51.430;6.840;2022-09-27T03:52:03;10.60;99.90
15328;DHT22;7764;51.430;6.840;2022-09-27T03:54:31;10.60;99.90
15328;DHT22;7764;51.430;6.840;2022-09-27T03:56:58;10.50;99.90
15328;DHT22;7764;51.430;6.840;2022-09-27T03:59:25;10.50;99.90
15328;DHT22;7764;51.430;6.840;2022-09-27T04:01:52;10.50;99.90
15328;DHT22;7764;51.430;6.840;2022-09-27T04:04:19;10.40;99.90
15328;DHT22;7764;51.430;6.840;2022-09-27T04:06:46;10.40;99.90
15328;DHT22;7764;51.430;6.840;2022-09-27T04:09:13;10.40;99.90
15328;DHT22;7764;51.430;6.840;2022-09-27T04:11:42;10.40;99.90
15328;DHT22;7764;51.430;6.840;2022-09-27T04:14:08;10.40;99.90
15328;DHT22;7764;51.430;6.840;2022-09-27T04:16:37;10.30;99.90
15328;DHT22;7764;51.430;6.840;2022-09-27T04:19:04;10.30;99.90
15328;DHT22;7764;51.430;6.840;2022-09-27T04:21:32;10.30;99.90
15328;DHT22;7764;51.430;6.840;2022-09-27T04:23:59;10.20;99.90
15328;DHT22;7764;51.430;6.840;2022-09-27T04:26:26;10.20;99.90
15328;DHT22;7764;51.430;6.840;2022-09-27T04:28:54;10.30;99.90
15328;DHT22;7764;51.430;6.840;2022-09-27T04:31:21;10.20;99.90
15328;DHT22;7764;51.430;6.840;2022-09-27T04:33:48;10.30;99.90
15328;DHT22;7764;51.430;6.840;2022-09-27T04:36:18;10.30;99.90
15328;DHT22;7764;51.430;6.840;2022-09-27T04:38:51;10.30;99.90
15328;DHT22;7764;51.430;6.840;2022-09-27T04:41:17;10.30;99.90
15328;DHT22;7764;51.430;6.840;2022-09-27T04:43:46;10.20;99.90
15328;DHT22;7764;51.430;6.840;2022-09-27T04:46:14;10.20;99.90
15328;DHT22;7764;51.430;6.840;2022-09-27T04:48:41;10.20;99.90
15328;DHT22;7764;51.430;6.840;2022-09-27T04:51:09;10.20;99.90
15328;DHT22;7764;51.430;6.840;2022-09-27T04:53:36;10.20;99.90
15328;DHT22;7764;51.430;6.840;2022-09-27T04:56:03;10.20;99.90
15328;DHT22;7764;51.430;6.840;2022-09-27T04:58:32;10.20;99.90
15328;DHT22;7764;51.430;6.840;2022-09-27T05:01:00;10.20;99.90
15328;DHT22;7764;51.430;6.840;2022-09-27T05:03:29;10.20;99.90
15328;DHT22;7764;51.430;6.840;2022-09-27T05:05:56;10.20;99.90
15328;DHT22;7764;51.430;6.840;2022-09-27T05:08:24;10.20;99.90
15328;DHT22;7764;51.430;6.840;2022-09-27T05:10:51;10.20;99.90
15328;DHT22;7764;51.430;6.840;2022-09-27T05:13:18;10.10;99.90
15328;DHT22;7764;51.430;6.840;2022-09-27T05:15:45;10.10;99.90
15328;DHT22;7764;51.430;6.840;2022-09-27T05:18:12;10.10;99.90
15328;DHT22;7764;51.430;6.840;2022-09-27T05:20:41;10.20;99.90
15328;DHT22;7764;51.430;6.840;2022-09-27T05:23:08;10.20;99.90
15328;DHT22;7764;51.430;6.840;2022-09-27T05:25:35;10.20;99.90
15328;DHT22;7764;51.430;6.840;2022-09-27T05:28:02;10.20;99.90
15328;DHT22;7764;51.430;6.840;2022-09-27T05:30:29;10.30;99.90
15328;DHT22;7764;51.430;6.840;2022-09-27T05:32:56;10.20;99.90
15328;DHT22;7764;51.430;6.840;2022-09-27T05:35:23;10.20;99.90
15328;DHT22;7764;51.430;6.840;2022-09-27T05:37:55;10.20;99.90
15328;DHT22;7764;51.430;6.840;2022-09-27T05:40:23;10.20;99.90
15328;DHT22;7764;51.430;6.840;2022-09-27T05:42:50;10.20;99.90
15328;DHT22;7764;51.430;6.840;2022-09-27T05:45:18;10.30;99.90
15328;DHT22;7764;51.430;6.840;2022-09-27T05:47:52;10.20;99.90
15328;DHT22;7764;51.430;6.840;2022-09-27T05:50:19;10.30;99.90
15328;DHT22;7764;51.430;6.840;2022-09-27T05:52:46;10.30;99.90
15328;DHT22;7764;51.430;6.840;2022-09-27T05:55:15;10.40;99.90
15328;DHT22;7764;51.430;6.840;2022-09-27T05:57:52;10.50;99.90
15328;DHT22;7764;51.430;6.840;2022-09-27T06:00:19;10.50;99.90
15328;DHT22;7764;51.430;6.840;2022-09-27T06:02:52;10.40;99.90
15328;DHT22;7764;51.430;6.840;2022-09-27T06:05:19;10.40;99.90
15328;DHT22;7764;51.430;6.840;2022-09-27T06:07:46;10.50;99.90
15328;DHT22;7764;51.430;6.840;2022-09-27T06:10:15;10.50;99.90
15328;DHT22;7764;51.430;6.840;2022-09-27T06:12:42;10.50;99.90
15328;DHT22;7764;51.430;6.840;2022-09-27T06:15:10;10.60;99.90
15328;DHT22;7764;51.430;6.840;2022-09-27T06:17:37;10.70;99.90
15328;DHT22;7764;51.430;6.840;2022-09-27T06:20:04;10.70;99.90
15328;DHT22;7764;51.430;6.840;2022-09-27T06:22:32;10.60;99.90
15328;DHT22;7764;51.430;6.840;2022-09-27T06:24:59;10.70;99.90
15328;DHT22;7764;51.430;6.840;2022-09-27T06:27:27;10.70;99.90
15328;DHT22;7764;51.430;6.840;2022-09-27T06:29:54;10.60;99.90
15328;DHT22;7764;51.430;6.840;2022-09-27T06:32:21;10.60;99.90
15328;DHT22;7764;51.430;6.840;2022-09-27T06:34:48;10.60;99.90
15328;DHT22;7764;51.430;6.840;2022-09-27T06:37:15;10.60;99.90
15328;DHT22;7764;51.430;6.840;2022-09-27T06:39:42;10.70;99.90
15328;DHT22;7764;51.430;6.840;2022-09-27T06:42:09;10.70;99.90
15328;DHT22;7764;51.430;6.840;2022-09-27T06:44:37;10.70;99.90
15328;DHT22;7764;51.430;6.840;2022-09-27T06:47:04;10.80;99.90
15328;DHT22;7764;51.430;6.840;2022-09-27T06:49:32;10.70;99.90
15328;DHT22;7764;51.430;6.840;2022-09-27T06:51:59;10.70;99.90
15328;DHT22;7764;51.430;6.840;2022-09-27T06:54:26;10.70;99.90
15328;DHT22;7764;51.430;6.840;2022-09-27T06:56:53;10.70;99.90
15328;DHT22;7764;51.430;6.840;2022-09-27T06:59:20;10.70;99.90
15328;DHT22;7764;51.430;6.840;2022-09-27T07:02:06;10.80;99.90
15328;DHT22;7764;51.430;6.840;2022-09-27T07:04:33;10.80;99.90
15328;DHT22;7764;51.430;6.840;2022-09-27T07:07:00;10.70;99.90
15328;DHT22;7764;51.430;6.840;2022-09-27T07:09:27;10.80;99.90
15328;DHT22;7764;51.430;6.840;2022-09-27T07:11:54;10.80;99.90
15328;DHT22;7764;51.430;6.840;2022-09-27T07:14:22;10.90;99.90
15328;DHT22;7764;51.430;6.840;2022-09-27T07:16:49;10.90;99.90
15328;DHT22;7764;51.430;6.840;2022-09-27T07:19:17;11.00;99.90
15328;DHT22;7764;51.430;6.840;2022-09-27T07:21:44;11.10;99.90
15328;DHT22;7764;51.430;6.840;2022-09-27T07:24:11;11.00;99.90
15328;DHT22;7764;51.430;6.840;2022-09-27T07:26:38;11.10;99.90
15328;DHT22;7764;51.430;6.840;2022-09-27T07:29:05;11.10;99.90
15328;DHT22;7764;51.430;6.840;2022-09-27T07:31:32;11.20;99.90
15328;DHT22;7764;51.430;6.840;2022-09-27T07:33:59;11.10;99.90
15328;DHT22;7764;51.430;6.840;2022-09-27T07:36:27;11.20;99.90
15328;DHT22;7764;51.430;6.840;2022-09-27T07:38:57;11.20;99.90
15328;DHT22;7764;51.430;6.840;2022-09-27T07:41:25;11.20;99.90
15328;DHT22;7764;51.430;6.840;2022-09-27T07:43:52;11.30;99.90
15328;DHT22;7764;51.430;6.840;2022-09-27T07:46:19;11.40;99.90
15328;DHT22;7764;51.430;6.840;2022-09-27T07:48:46;11.40;99.90
15328;DHT22;7764;51.430;6.840;2022-09-27T07:51:13;11.60;99.90
15328;DHT22;7764;51.430;6.840;2022-09-27T07:53:43;11.60;99.90
15328;DHT22;7764;51.430;6.840;2022-09-27T07:56:11;11.60;99.90
15328;DHT22;7764;51.430;6.840;2022-09-27T07:58:38;11.70;99.90
15328;DHT22;7764;51.430;6.840;2022-09-27T08:01:07;11.70;99.90
15328;DHT22;7764;51.430;6.840;2022-09-27T08:03:35;11.70;99.90
15328;DHT22;7764;51.430;6.840;2022-09-27T08:06:02;11.80;99.90
15328;DHT22;7764;51.430;6.840;2022-09-27T08:08:29;11.80;99.90
15328;DHT22;7764;51.430;6.840;2022-09-27T08:11:00;11.80;99.90
15328;DHT22;7764;51.430;6.840;2022-09-27T08:13:28;11.80;99.90
15328;DHT22;7764;51.430;6.840;2022-09-27T08:16:00;11.80;99.90
15328;DHT22;7764;51.430;6.840;2022-09-27T08:18:28;11.80;99.90
15328;DHT22;7764;51.430;6.840;2022-09-27T08:20:58;11.90;99.90
15328;DHT22;7764;51.430;6.840;2022-09-27T08:23:28;11.90;99.90
15328;DHT22;7764;51.430;6.840;2022-09-27T08:25:56;12.20;99.90
15328;DHT22;7764;51.430;6.840;2022-09-27T08:28:27;12.40;99.90
15328;DHT22;7764;51.430;6.840;2022-09-27T08:30:57;12.40;99.90
15328;DHT22;7764;51.430;6.840;2022-09-27T08:33:25;12.40;99.90
15328;DHT22;7764;51.430;6.840;2022-09-27T08:35:54;12.40;99.90
15328;DHT22;7764;51.430;6.840;2022-09-27T08:38:21;12.30;99.90
15328;DHT22;7764;51.430;6.840;2022-09-27T08:40:53;12.10;99.90
15328;DHT22;7764;51.430;6.840;2022-09-27T08:43:35;12.30;99.90
15328;DHT22;7764;51.430;6.840;2022-09-27T08:46:09;12.40;99.90
15328;DHT22;7764;51.430;6.840;2022-09-27T08:48:39;12.10;99.90
15328;DHT22;7764;51.430;6.840;2022-09-27T08:51:11;12.20;99.90
15328;DHT22;7764;51.430;6.840;2022-09-27T08:53:42;12.20;99.90
15328;DHT22;7764;51.430;6.840;2022-09-27T08:56:13;12.00;99.90
15328;DHT22;7764;51.430;6.840;2022-09-27T08:58:50;12.00;99.90
15328;DHT22;7764;51.430;6.840;2022-09-27T09:01:18;12.10;99.90
15328;DHT22;7764;51.430;6.840;2022-09-27T09:03:48;12.10;99.90
15328;DHT22;7764;51.430;6.840;2022-09-27T09:06:19;12.10;99.90
15328;DHT22;7764;51.430;6.840;2022-09-27T09:11:50;12.20;99.90
15328;DHT22;7764;51.430;6.840;2022-09-27T09:18:04;12.20;99.90
15328;DHT22;7764;51.430;6.840;2022-09-27T09:20:46;12.20;99.90
15328;DHT22;7764;51.430;6.840;2022-09-27T09:23:39;12.20;99.90
15328;DHT22;7764;51.430;6.840;2022-09-27T09:26:14;12.00;99.90
15328;DHT22;7764;51.430;6.840;2022-09-27T09:28:57;12.00;99.90
15328;DHT22;7764;51.430;6.840;2022-09-27T09:31:36;12.00;99.90
15328;DHT22;7764;51.430;6.840;2022-09-27T09:34:10;12.00;99.90
15328;DHT22;7764;51.430;6.840;2022-09-27T09:36:43;12.20;99.90
15328;DHT22;7764;51.430;6.840;2022-09-27T09:39:15;12.50;99.90
15328;DHT22;7764;51.430;6.840;2022-09-27T09:41:59;12.50;99.90
15328;DHT22;7764;51.430;6.840;2022-09-27T09:44:31;12.60;99.90
15328;DHT22;7764;51.430;6.840;2022-09-27T09:47:02;12.70;99.90
15328;DHT22;7764;51.430;6.840;2022-09-27T09:49:35;12.70;99.90
15328;DHT22;7764;51.430;6.840;2022-09-27T09:52:09;12.70;99.90
15328;DHT22;7764;51.430;6.840;2022-09-27T09:54:40;12.70;99.90
15328;DHT22;7764;51.430;6.840;2022-09-27T09:57:13;12.70;99.90
15328;DHT22;7764;51.430;6.840;2022-09-27T09:59:44;12.80;99.90
15328;DHT22;7764;51.430;6.840;2022-09-27T10:02:22;12.80;99.90
15328;DHT22;7764;51.430;6.840;2022-09-27T10:04:51;12.80;99.90
15328;DHT22;7764;51.430;6.840;2022-09-27T10:07:21;12.80;99.90
15328;DHT22;7764;51.430;6.840;2022-09-27T10:09:49;12.80;99.90
15328;DHT22;7764;51.430;6.840;2022-09-27T10:12:16;12.80;99.90
15328;DHT22;7764;51.430;6.840;2022-09-27T10:14:46;12.90;99.90
15328;DHT22;7764;51.430;6.840;2022-09-27T10:17:18;13.00;99.90
15328;DHT22;7764;51.430;6.840;2022-09-27T10:19:46;13.00;99.90
15328;DHT22;7764;51.430;6.840;2022-09-27T10:22:21;13.00;99.90
15328;DHT22;7764;51.430;6.840;2022-09-27T10:24:55;13.10;99.90
15328;DHT22;7764;51.430;6.840;2022-09-27T10:27:24;13.20;99.90
15328;DHT22;7764;51.430;6.840;2022-09-27T10:29:58;13.20;99.90
15328;DHT22;7764;51.430;6.840;2022-09-27T10:32:31;13.20;99.90
15328;DHT22;7764;51.430;6.840;2022-09-27T10:35:30;13.30;99.90
15328;DHT22;7764;51.430;6.840;2022-09-27T10:38:20;13.40;99.90
15328;DHT22;7764;51.430;6.840;2022-09-27T10:40:48;13.60;99.90
15328;DHT22;7764;51.430;6.840;2022-09-27T10:43:30;13.70;99.90
15328;DHT22;7764;51.430;6.840;2022-09-27T10:46:05;13.50;99.90
15328;DHT22;7764;51.430;6.840;2022-09-27T10:48:36;13.60;99.90
15328;DHT22;7764;51.430;6.840;2022-09-27T10:51:07;13.70;99.90
15328;DHT22;7764;51.430;6.840;2022-09-27T10:53:46;13.50;99.90
15328;DHT22;7764;51.430;6.840;2022-09-27T10:56:21;13.70;99.90
15328;DHT22;7764;51.430;6.840;2022-09-27T10:58:49;13.80;99.90
15328;DHT22;7764;51.430;6.840;2022-09-27T11:01:17;13.70;99.90
15328;DHT22;7764;51.430;6.840;2022-09-27T11:03:49;13.80;99.90
15328;DHT22;7764;51.430;6.840;2022-09-27T11:06:28;13.80;99.90
15328;DHT22;7764;51.430;6.840;2022-09-27T11:09:10;13.70;99.90
15328;DHT22;7764;51.430;6.840;2022-09-27T11:11:41;13.70;99.90
15328;DHT22;7764;51.430;6.840;2022-09-27T11:14:17;13.50;99.90
15328;DHT22;7764;51.430;6.840;2022-09-27T11:16:58;13.60;99.90
15328;DHT22;7764;51.430;6.840;2022-09-27T11:19:42;13.50;99.90
15328;DHT22;7764;51.430;6.840;2022-09-27T11:22:21;13.40;99.90
15328;DHT22;7764;51.430;6.840;2022-09-27T11:25:03;13.50;99.90
15328;DHT22;7764;51.430;6.840;2022-09-27T11:27:43;13.10;99.90
15328;DHT22;7764;51.430;6.840;2022-09-27T11:30:13;13.00;99.90
15328;DHT22;7764;51.430;6.840;2022-09-27T11:32:52;13.10;99.90
15328;DHT22;7764;51.430;6.840;2022-09-27T11:35:42;13.10;99.90
15328;DHT22;7764;51.430;6.840;2022-09-27T11:38:17;13.10;99.90
15328;DHT22;7764;51.430;6.840;2022-09-27T11:40:59;13.40;99.90
15328;DHT22;7764;51.430;6.840;2022-09-27T11:43:45;13.60;99.90
15328;DHT22;7764;51.430;6.840;2022-09-27T11:46:23;13.40;99.90
15328;DHT22;7764;51.430;6.840;2022-09-27T11:49:04;13.60;99.90
15328;DHT22;7764;51.430;6.840;2022-09-27T11:51:57;13.70;99.90
15328;DHT22;7764;51.430;6.840;2022-09-27T11:57:21;13.70;99.90
15328;DHT22;7764;51.430;6.840;2022-09-27T12:00:13;13.70;99.90
15328;DHT22;7764;51.430;6.840;2022-09-27T12:03:14;13.40;99.90
15328;DHT22;7764;51.430;6.840;2022-09-27T12:05:57;12.90;99.90
15328;DHT22;7764;51.430;6.840;2022-09-27T12:08:47;12.80;99.90
15328;DHT22;7764;51.430;6.840;2022-09-27T12:11:21;12.70;99.90
15328;DHT22;7764;51.430;6.840;2022-09-27T12:13:53;12.50;99.90
15328;DHT22;7764;51.430;6.840;2022-09-27T12:16:25;12.40;99.90
15328;DHT22;7764;51.430;6.840;2022-09-27T12:18:53;12.10;99.90
15328;DHT22;7764;51.430;6.840;2022-09-27T12:21:21;11.90;99.90
15328;DHT22;7764;51.430;6.840;2022-09-27T12:23:52;11.80;99.90
15328;DHT22;7764;51.430;6.840;2022-09-27T12:26:23;11.80;99.90
15328;DHT22;7764;51.430;6.840;2022-09-27T12:28:53;12.00;99.90
15328;DHT22;7764;51.430;6.840;2022-09-27T12:31:25;12.20;99.90
15328;DHT22;7764;51.430;6.840;2022-09-27T12:34:01;12.20;99.90
15328;DHT22;7764;51.430;6.840;2022-09-27T12:36:32;12.10;99.90
15328;DHT22;7764;51.430;6.840;2022-09-27T12:39:07;12.10;99.90
15328;DHT22;7764;51.430;6.840;2022-09-27T12:41:42;12.00;99.90
15328;DHT22;7764;51.430;6.840;2022-09-27T12:44:10;12.00;99.90
15328;DHT22;7764;51.430;6.840;2022-09-27T12:46:49;12.20;99.90
15328;DHT22;7764;51.430;6.840;2022-09-27T12:49:26;12.20;99.90
15328;DHT22;7764;51.430;6.840;2022-09-27T12:51:58;12.10;99.90
15328;DHT22;7764;51.430;6.840;2022-09-27T12:54:52;12.20;99.90
15328;DHT22;7764;51.430;6.840;2022-09-27T12:57:31;12.20;99.90
15328;DHT22;7764;51.430;6.840;2022-09-27T13:00:09;12.20;99.90
15328;DHT22;7764;51.430;6.840;2022-09-27T13:03:07;12.30;99.90
15328;DHT22;7764;51.430;6.840;2022-09-27T13:06:15;12.40;99.90
15328;DHT22;7764;51.430;6.840;2022-09-27T13:09:03;12.30;99.90
15328;DHT22;7764;51.430;6.840;2022-09-27T13:11:42;12.60;99.90
15328;DHT22;7764;51.430;6.840;2022-09-27T13:14:15;12.40;99.90
15328;DHT22;7764;51.430;6.840;2022-09-27T13:16:44;12.40;99.90
15328;DHT22;7764;51.430;6.840;2022-09-27T13:19:37;12.50;99.90
15328;DHT22;7764;51.430;6.840;2022-09-27T13:22:08;12.40;99.90
15328;DHT22;7764;51.430;6.840;2022-09-27T13:24:43;12.40;99.90
15328;DHT22;7764;51.430;6.840;2022-09-27T13:27:45;12.40;99.90
15328;DHT22;7764;51.430;6.840;2022-09-27T13:30:45;12.60;99.90
15328;DHT22;7764;51.430;6.840;2022-09-27T13:33:33;12.60;99.90
15328;DHT22;7764;51.430;6.840;2022-09-27T13:36:30;12.70;99.90
15328;DHT22;7764;51.430;6.840;2022-09-27T13:39:03;12.70;99.90
15328;DHT22;7764;51.430;6.840;2022-09-27T13:41:39;12.70;99.90
15328;DHT22;7764;51.430;6.840;2022-09-27T13:44:23;12.80;99.90
15328;DHT22;7764;51.430;6.840;2022-09-27T13:46:56;12.90;99.90
15328;DHT22;7764;51.430;6.840;2022-09-27T13:49:29;13.00;99.90
15328;DHT22;7764;51.430;6.840;2022-09-27T13:51:59;13.10;99.90
15328;DHT22;7764;51.430;6.840;2022-09-27T13:54:50;13.20;99.90
15328;DHT22;7764;51.430;6.840;2022-09-27T13:57:45;13.10;99.90
15328;DHT22;7764;51.430;6.840;2022-09-27T14:00:16;13.30;99.90
15328;DHT22;7764;51.430;6.840;2022-09-27T14:02:54;13.40;99.90
15328;DHT22;7764;51.430;6.840;2022-09-27T14:05:27;13.50;99.90
15328;DHT22;7764;51.430;6.840;2022-09-27T14:07:59;13.60;99.90
15328;DHT22;7764;51.430;6.840;2022-09-27T14:10:29;13.50;99.90
15328;DHT22;7764;51.430;6.840;2022-09-27T14:12:59;13.40;99.90
15328;DHT22;7764;51.430;6.840;2022-09-27T14:15:30;13.30;99.90
15328;DHT22;7764;51.430;6.840;2022-09-27T14:17:58;13.40;99.90
15328;DHT22;7764;51.430;6.840;2022-09-27T14:20:33;13.40;99.90
15328;DHT22;7764;51.430;6.840;2022-09-27T14:23:01;13.50;99.90
15328;DHT22;7764;51.430;6.840;2022-09-27T14:25:29;13.50;99.90
15328;DHT22;7764;51.430;6.840;2022-09-27T14:27:55;13.50;99.90
15328;DHT22;7764;51.430;6.840;2022-09-27T14:30:26;13.50;99.90
15328;DHT22;7764;51.430;6.840;2022-09-27T14:32:56;13.50;99.90
15328;DHT22;7764;51.430;6.840;2022-09-27T14:35:28;13.60;99.90
15328;DHT22;7764;51.430;6.840;2022-09-27T14:38:15;13.60;99.90
15328;DHT22;7764;51.430;6.840;2022-09-27T14:40:53;13.60;99.90
15328;DHT22;7764;51.430;6.840;2022-09-27T14:43:21;13.70;99.90
15328;DHT22;7764;51.430;6.840;2022-09-27T14:45:50;13.80;99.90
15328;DHT22;7764;51.430;6.840;2022-09-27T14:48:25;13.70;99.90
15328;DHT22;7764;51.430;6.840;2022-09-27T14:50:54;13.50;99.90
15328;DHT22;7764;51.430;6.840;2022-09-27T14:53:29;13.50;99.90
15328;DHT22;7764;51.430;6.840;2022-09-27T14:55:57;13.40;99.90
15328;DHT22;7764;51.430;6.840;2022-09-27T14:58:25;13.30;99.90
15328;DHT22;7764;51.430;6.840;2022-09-27T15:00:53;13.20;99.90
15328;DHT22;7764;51.430;6.840;2022-09-27T15:03:26;13.30;99.90
15328;DHT22;7764;51.430;6.840;2022-09-27T15:05:54;13.50;99.90
15328;DHT22;7764;51.430;6.840;2022-09-27T15:08:26;13.60;99.90
15328;DHT22;7764;51.430;6.840;2022-09-27T15:10:54;13.70;99.90
15328;DHT22;7764;51.430;6.840;2022-09-27T15:13:23;13.70;99.90
15328;DHT22;7764;51.430;6.840;2022-09-27T15:15:52;13.70;99.90
15328;DHT22;7764;51.430;6.840;2022-09-27T15:18:33;13.80;99.90
15328;DHT22;7764;51.430;6.840;2022-09-27T15:21:05;13.70;99.90
15328;DHT22;7764;51.430;6.840;2022-09-27T15:23:35;13.90;99.90
15328;DHT22;7764;51.430;6.840;2022-09-27T15:26:08;13.80;99.90
15328;DHT22;7764;51.430;6.840;2022-09-27T15:28:36;13.60;99.90
15328;DHT22;7764;51.430;6.840;2022-09-27T15:31:04;13.50;99.90
15328;DHT22;7764;51.430;6.840;2022-09-27T15:33:34;13.50;99.90
15328;DHT22;7764;51.430;6.840;2022-09-27T15:36:03;13.50;99.90
15328;DHT22;7764;51.430;6.840;2022-09-27T15:38:31;13.40;99.90
15328;DHT22;7764;51.430;6.840;2022-09-27T15:41:16;13.30;99.90
15328;DHT22;7764;51.430;6.840;2022-09-27T15:43:46;13.30;99.90
15328;DHT22;7764;51.430;6.840;2022-09-27T15:46:26;13.20;99.90
15328;DHT22;7764;51.430;6.840;2022-09-27T15:49:20;13.30;99.90
15328;DHT22;7764;51.430;6.840;2022-09-27T15:51:49;13.30;99.90
15328;DHT22;7764;51.430;6.840;2022-09-27T15:54:19;13.20;99.90
15328;DHT22;7764;51.430;6.840;2022-09-27T15:56:47;13.20;99.90
15328;DHT22;7764;51.430;6.840;2022-09-27T15:59:19;13.00;99.90
15328;DHT22;7764;51.430;6.840;2022-09-27T16:01:47;13.00;99.90
15328;DHT22;7764;51.430;6.840;2022-09-27T16:04:14;12.80;99.90
15328;DHT22;7764;51.430;6.840;2022-09-27T16:06:42;12.70;99.90
15328;DHT22;7764;51.430;6.840;2022-09-27T16:09:13;12.70;99.90
15328;DHT22;7764;51.430;6.840;2022-09-27T16:11:42;12.50;99.90
15328;DHT22;7764;51.430;6.840;2022-09-27T16:14:09;12.50;99.90
15328;DHT22;7764;51.430;6.840;2022-09-27T16:16:39;12.50;99.90
15328;DHT22;7764;51.430;6.840;2022-09-27T16:19:07;12.30;99.90
15328;DHT22;7764;51.430;6.840;2022-09-27T16:21:34;12.30;99.90
15328;DHT22;7764;51.430;6.840;2022-09-27T16:24:02;12.10;99.90
15328;DHT22;7764;51.430;6.840;2022-09-27T16:26:29;12.10;99.90
15328;DHT22;7764;51.430;6.840;2022-09-27T16:28:56;12.00;99.90